This is the latest recevied weather packets stored in our database for station/object TA3MHA. If no packets are shown the sender has not sent any weather packets the latest 10 day(s).
| Time | Temp. | Humidity | Pressure | Rain* | Wind** | Luminosity | Snow |
|---|---|---|---|---|---|---|---|
| 1777237501 | 11.67° C | 61% | - | 0 mm | - | 0 W/m² | - |
| 1777237201 | 12.78° C | 58% | - | 0 mm | - | 0 W/m² | - |
| 1777236901 | 12.22° C | 59% | - | 0 mm | - | 0 W/m² | - |
| 1777236601 | 13.33° C | 58% | - | 0 mm | - | 0 W/m² | - |
| 1777236301 | 13.33° C | 55% | - | 0 mm | - | 0 W/m² | - |
| 1777236001 | 12.78° C | 58% | - | 0 mm | - | 0 W/m² | - |
| 1777235701 | 12.22° C | 61% | - | 0 mm | - | 0 W/m² | - |
| 1777235401 | 11.67° C | 64% | - | 0 mm | - | 0 W/m² | - |
| 1777235101 | 11.67° C | 64% | - | 0 mm | - | 0 W/m² | - |
| 1777234800 | 11.67° C | 64% | - | 0 mm | - | 0 W/m² | - |
| 1777234500 | 11.67° C | 63% | - | 0 mm | - | 0 W/m² | - |
| 1777234201 | 11.67° C | 65% | - | 0 mm | - | 0 W/m² | - |
| 1777233901 | 11.67° C | 64% | - | 0 mm | - | 0 W/m² | - |
| 1777233606 | 12.22° C | 63% | - | 0 mm | - | 0 W/m² | - |
| 1777233301 | 12.22° C | 62% | - | 0 mm | - | 0 W/m² | - |
| 1777233001 | 12.22° C | 62% | - | 0 mm | - | 0 W/m² | - |
| 1777232700 | 12.78° C | 60% | - | 0 mm | - | 0 W/m² | - |
| 1777232401 | 13.33° C | 58% | - | 0 mm | - | 0 W/m² | - |
| 1777232101 | 12.78° C | 60% | - | 0 mm | - | 0 W/m² | - |
| 1777231801 | 12.22° C | 64% | - | 0 mm | - | 0 W/m² | - |
| 1777231501 | 12.78° C | 62% | - | 0 mm | - | 0 W/m² | - |
| 1777231201 | 13.89° C | 58% | - | 0 mm | - | 0 W/m² | - |
| 1777230901 | 13.33° C | 58% | - | 0 mm | - | 0 W/m² | - |
| 1777230601 | 13.33° C | 60% | - | 0 mm | - | 0 W/m² | - |
| 1777230301 | 13.33° C | 59% | - | 0 mm | - | 0 W/m² | - |
* Rain latest hour (hover to see other rain measurements)
** Current wind speed in m/s (hover to see current wind gust speed)